Monroe, NC

2:58 AM EST en Diciembre 19, 2014 (GMT -0500)
Lake Park | Change Station
CLOSE
Current Station
Estación meteorológica personal
Location: Indian Trail, NC
Altura: 640 ft
Estaciones meteorológicas cercanas

Alt 640 ft 35.09 °N, 80.63 °W | Updated 16 seconds ago

Parcialmente nublado
Parcialmente nublado
32.8 ° F
Sensación térmica 33 ° F
N
0.0
Viento Variable Viento desde SSE
Gusts 0.0 mph

Hoy
Alta -- | Baja -- ° F
--% Posibilidad de precipitaciones
Ayer
Alta -- | Baja -- ° F
Precip. -- pul
7:25 AM 5:13 PM
Creciente menguante, 9% visible
Presión 30.13 pul
Visibilidad 10.0 Millas
Nubes Despejado
Vientos helados 33 ° F
Punto de rocío 29 ° F
Humedad 85%
Precipitaciones 0.00 pul
Espesor de la nieve No disponible.
UV 0 de una escala de 12
Polen 1.10 de una escala de 12
Calidad del aire No disponible.
Flu Activity No disponible.
METAR KEQY 190753Z AUTO 03005KT 10SM CLR 03/M01 A3008 RMK AO2 SLP202 T00331011

More Conditions Fewer Conditions

Presión 30.13 pul
Visibilidad 10.0 Millas
Nubes Despejado
Vientos helados 33 ° F
Punto de rocío 29 ° F
Humedad 85%
Precipitaciones 0.00 pul
Espesor de la nieve No disponible.
UV 0 de una escala de 12
Polen 1.10 de una escala de 12
Calidad del aire No disponible.
Flu Activity No disponible.
METAR KEQY 190753Z AUTO 03005KT 10SM CLR 03/M01 A3008 RMK AO2 SLP202 T00331011

More Conditions Fewer Conditions

10-Day Weather Forecast

Almanac

Astronomía

Dec. 19, 2014 Salida Puesta
Hora real
Crepúsculo civil
Crepúsculo náutico
Crepúsculo astronómico
Luna
Horas de luz
Horas de luz
Tomorrow will be .
, % of the Moon is Illuminated

Extremos de hoy

Máximos del estado Bajos del estado

Community

WunderPhotos

Upload Photos

1,778,953 ¡fotos cargadas!

WunderBlogs® & News

Nearby

Calidad del aire

  Calidad del aire Índice AQ Contaminante
Not available.

Grosos de nieve

Estación Profundido Altura

Actividad de terremotos

Ciudad Distance Mag. Tiempo y dato
Magnitud mínima muestra es 2,5.

Temperaturas de aguas costeras

Lugar Temperatura

Estaciones meteorológicas cercanas